Date,TemperatureHighF,TemperatureAvgF,TemperatureLowF,DewpointHighF,DewpointAvgF,DewpointLowF,HumidityHigh,HumidityAvg,HumidityLow,PressureMaxIn,PressureMinIn,WindSpeedMaxMPH,WindSpeedAvgMPH,GustSpeedMaxMPH,PrecipitationSumIn
2014-1-1,28,24,20,10,5,2,56,44,33,30.32,30.12,13,3,19,0.00
2014-1-2,24,14,3,15,9,-2,86,80,47,30.30,29.79,18,5,29,0.17
2014-1-3,14,6,2,8,1,-5,83,76,67,30.34,29.65,17,6,26,0.00
2014-1-4,26,15,2,20,8,-5,78,72,63,30.44,30.20,14,2,20,0.01
2014-1-5,40,32,24,37,24,16,89,72,44,30.26,29.88,7,1,17,0.02
2014-1-6,59,46,29,58,42,14,96,85,52,29.85,29.22,18,4,25,0.23
2014-1-7,29,15,9,13,-7,-15,53,37,26,30.16,29.44,27,8,31,0.00
2014-1-8,22,15,8,2,-4,-11,53,43,34,30.40,30.16,14,4,18,0.00
2014-1-9,30,23,18,10,5,1,59,46,31,30.58,30.36,13,2,21,0.00
2014-1-10,39,30,19,35,24,8,88,77,54,30.54,30.21,5,0,7,0.00
2014-1-11,60,51,39,57,49,35,94,92,88,30.21,29.23,23,4,30,0.49
2014-1-12,55,45,37,53,31,23,93,61,45,29.90,29.22,24,5,26,0.03
2014-1-13,52,43,33,45,29,22,84,59,34,30.06,29.84,13,3,21,0.00
2014-1-14,50,49,44,48,45,42,92,88,80,29.84,29.54,15,2,18,0.61
2014-1-15,50,42,36,42,36,32,92,81,56,29.96,29.68,7,1,13,0.00
2014-1-16,40,38,35,37,36,34,96,92,84,29.87,29.78,6,1,9,0.00
2014-1-17,46,40,36,38,29,16,92,67,30,29.92,29.84,9,1,14,0.00
2014-1-18,40,36,33,36,32,27,92,86,70,29.86,29.55,9,1,13,0.43
2014-1-19,35,32,30,31,26,20,92,77,57,29.66,29.48,16,3,22,0.02
2014-1-20,42,36,27,26,22,8,66,58,39,29.80,29.44,19,4,26,0.00
2014-1-21,27,16,12,9,2,-7,80,53,33,30.00,29.80,15,4,21,0.06
2014-1-22,18,12,8,7,-1,-6,80,56,36,29.82,29.57,16,5,24,0.00
2014-1-23,22,13,6,-1,-5,-8,55,43,28,30.08,29.83,12,3,21,0.00
2014-1-24,19,13,7,-1,-5,-10,53,42,27,30.19,30.00,15,4,20,0.00
2014-1-25,39,28,16,26,16,-1,80,60,44,29.99,29.27,23,5,32,0.00
2014-1-26,26,20,15,16,2,-8,68,45,27,29.82,29.27,22,5,29,0.00
2014-1-27,46,32,21,37,18,-1,82,56,27,29.91,29.45,20,5,28,0.00
2014-1-28,21,18,13,1,-9,-16,41,29,20,30.24,29.92,17,4,23,0.00
2014-1-29,26,21,16,4,-5,-12,57,33,18,30.17,29.91,14,3,21,0.00
2014-1-30,31,23,15,12,1,-8,64,39,27,30.37,30.14,11,2,16,0.00
2014-1-31,42,34,22,23,15,5,76,49,27,30.13,29.95,13,2,17,0.00
2014-2-1,47,39,33,29,21,17,73,48,32,30.28,29.97,12,2,16,0.00
2014-2-2,55,44,36,39,35,29,87,72,44,29.98,29.80,9,2,14,0.02
2014-2-3,41,34,27,33,27,20,89,77,53,30.23,29.99,12,3,14,0.10
2014-2-4,35,29,22,24,20,16,88,69,48,30.39,30.22,7,1,11,0.00
2014-2-5,34,30,24,31,26,21,91,84,68,30.25,29.56,14,3,19,0.76
2014-2-6,28,24,18,21,14,10,89,69,49,30.20,29.88,14,2,16,0.00
2014-2-7,31,24,17,12,10,7,66,55,41,30.19,30.09,16,2,19,0.00
2014-2-8,29,24,16,11,4,0,56,42,30,30.23,30.05,10,2,14,0.00
2014-2-9,30,27,22,24,15,5,84,63,40,30.10,29.89,7,2,12,0.01
2014-2-10,29,24,19,22,12,5,84,61,40,30.14,29.83,15,3,20,0.00
2014-2-11,26,20,13,8,3,0,67,50,33,30.37,30.14,11,3,16,0.00
2014-2-12,27,22,10,13,3,-4,65,44,26,30.50,30.36,19,1,19,0.00
2014-2-13,36,31,23,34,27,13,93,84,64,30.35,28.99,23,4,31,0.89
2014-2-14,37,34,29,33,26,21,93,75,58,29.66,28.77,26,7,33,0.35
2014-2-15,37,32,30,29,25,21,92,75,54,29.79,29.40,12,2,20,0.21
2014-2-16,33,27,22,28,14,8,92,59,38,29.89,29.40,21,6,31,0.00
2014-2-17,30,22,14,8,-2,-6,53,34,22,30.30,29.90,17,5,25,0.00
2014-2-18,34,25,15,31,17,-1,89,71,41,30.32,29.81,11,1,16,0.28
2014-2-19,37,31,24,32,26,19,91,82,65,30.04,29.65,7,1,12,0.18
2014-2-20,49,40,33,34,28,19,91,65,31,30.15,29.77,16,2,16,0.05
2014-2-21,41,39,36,40,37,33,96,93,89,30.10,29.61,14,3,20,0.15
2014-2-22,54,44,34,38,28,19,96,60,26,29.91,29.78,13,3,24,0.00
2014-2-23,53,46,39,28,25,22,62,44,30,29.93,29.71,11,1,16,0.00
2014-2-24,43,34,24,27,10,2,53,38,28,29.88,29.67,19,6,27,0.00
2014-2-25,30,25,21,9,5,2,54,43,31,29.92,29.80,16,4,26,0.00
2014-2-26,32,23,16,10,2,-10,58,40,23,29.88,29.69,16,4,21,0.00
2014-2-27,31,21,13,19,2,-8,69,43,21,29.83,29.52,14,3,27,0.00
2014-2-28,26,18,10,-3,-10,-15,43,29,17,30.37,29.84,17,4,23,0.00
2014-3-1,37,27,13,22,8,-8,65,45,23,30.38,30.03,12,2,18,0.00
2014-3-2,41,35,32,24,20,14,63,53,43,30.02,29.89,10,1,12,0.00
2014-3-3,31,23,17,13,0,-10,50,36,26,30.23,29.92,15,4,20,0.00
2014-3-4,31,22,12,3,-5,-10,42,30,20,30.32,30.18,10,2,12,0.00
2014-3-5,29,25,20,20,13,0,77,61,30,30.43,30.17,10,3,13,0.00
2014-3-6,29,21,11,12,0,-13,71,41,16,30.58,30.43,12,2,16,0.00
2014-3-7,39,29,16,27,17,7,77,61,41,30.44,29.89,8,1,12,0.00
2014-3-8,56,41,28,26,23,15,81,54,26,29.89,29.61,14,2,20,0.00
2014-3-9,43,36,30,17,8,2,49,33,19,29.87,29.80,20,4,21,0.00
2014-3-10,45,37,29,29,21,8,83,55,34,29.83,29.58,10,2,16,0.01
2014-3-11,60,47,38,35,29,23,87,54,25,29.66,29.44,17,3,22,0.00
2014-3-12,50,44,38,42,35,29,96,72,48,29.66,28.96,12,1,16,0.22
2014-3-13,38,23,18,37,13,-3,94,66,36,29.87,28.94,25,7,30,0.07
2014-3-14,40,28,15,26,6,-3,61,41,22,30.12,29.85,13,3,21,0.00
2014-3-15,58,46,38,38,30,24,81,55,30,29.84,29.60,17,4,27,0.00
2014-3-16,41,32,26,24,6,-3,55,33,19,30.13,29.81,19,6,27,0.00
2014-3-17,32,24,17,6,-5,-11,39,27,17,30.13,29.98,13,3,17,0.00
2014-3-18,38,29,20,20,9,-3,65,43,30,30.29,30.10,10,2,13,0.00
2014-3-19,44,35,26,31,24,19,77,64,46,30.33,29.93,14,3,19,0.00
2014-3-20,53,44,38,41,33,23,95,69,36,29.94,29.55,16,4,24,0.21
2014-3-21,45,39,34,23,20,17,57,47,33,29.97,29.68,21,6,28,0.00
2014-3-22,57,42,30,41,23,19,64,50,28,30.00,29.58,24,4,31,0.01
2014-3-23,45,37,26,23,13,-2,59,40,21,30.01,29.83,14,3,21,0.00
2014-3-24,34,25,17,-1,-4,-8,41,28,16,30.10,29.98,17,5,22,0.00
2014-3-25,40,31,22,15,6,-1,51,35,21,30.08,29.86,11,2,16,0.00
2014-3-26,36,32,25,18,7,-3,59,36,22,29.94,29.51,30,11,40,0.00
2014-3-27,47,33,21,14,0,-5,39,24,13,30.25,29.94,18,5,25,0.00
2014-3-28,61,47,36,48,35,14,86,65,39,30.20,29.89,15,3,33,0.02
2014-3-29,54,46,40,48,40,34,94,78,55,30.19,29.94,15,4,20,0.59
2014-3-30,43,41,36,41,39,34,95,94,91,29.93,29.57,16,6,22,1.53
2014-3-31,42,38,35,36,33,28,92,83,59,29.94,29.63,17,5,23,0.42
2014-4-1,54,44,35,30,27,25,67,51,36,30.05,29.93,13,3,18,0.00
2014-4-2,55,45,36,34,30,17,75,57,26,30.06,29.95,9,1,15,0.00
2014-4-3,57,45,36,33,26,20,78,51,25,30.07,29.98,15,2,18,0.00
2014-4-4,47,42,39,36,30,26,88,65,45,30.10,29.86,13,4,18,0.15
2014-4-5,53,44,38,43,34,21,95,70,41,29.87,29.62,31,5,31,0.19
2014-4-6,60,46,34,23,19,14,64,38,17,30.12,29.87,12,3,20,0.00
2014-4-7,62,51,40,42,24,14,84,39,18,30.17,29.86,14,2,19,0.02
2014-4-8,68,54,46,57,48,32,96,82,52,29.84,29.25,20,3,26,0.43
2014-4-9,60,50,42,35,26,8,71,43,18,29.90,29.44,18,4,26,0.00
2014-4-10,63,49,37,35,19,9,58,31,15,30.10,29.91,21,4,26,0.00
2014-4-11,70,59,49,49,40,34,71,51,31,29.95,29.84,11,2,18,0.01
2014-4-12,70,59,47,47,35,25,91,49,20,30.14,29.90,19,2,19,0.04
2014-4-13,68,56,49,51,41,33,76,57,43,30.21,29.95,10,2,15,0.02
2014-4-14,77,65,49,56,51,42,81,62,42,29.97,29.82,27,6,32,0.01
2014-4-15,69,61,45,59,56,42,92,85,61,29.85,29.52,29,8,35,0.90
2014-4-16,46,38,31,42,21,11,92,55,26,30.55,29.67,20,6,33,0.43
2014-4-17,43,37,32,25,21,13,67,53,41,30.75,30.55,15,4,23,0.00
2014-4-18,46,39,31,33,29,25,83,69,55,30.60,30.19,10,2,16,0.00
2014-4-19,64,51,38,35,30,23,84,50,24,30.35,30.10,20,4,24,0.00
2014-4-20,55,46,39,32,23,8,67,42,16,30.46,30.29,15,3,16,0.00
2014-4-21,72,54,38,39,28,17,71,43,14,30.29,29.78,14,2,22,0.00
2014-4-22,76,60,49,52,41,35,89,54,23,29.78,29.41,18,2,21,0.05
2014-4-23,56,52,47,52,44,32,91,76,50,29.55,29.36,24,5,31,0.23
2014-4-24,59,50,42,31,23,16,54,35,23,29.85,29.54,31,9,33,0.00
2014-4-25,66,53,43,33,26,18,52,36,16,29.95,29.77,13,2,17,0.00
2014-4-26,50,46,43,41,37,31,89,74,49,29.82,29.73,10,2,12,0.14
2014-4-27,50,46,42,43,40,37,89,80,68,29.98,29.79,9,1,13,0.06
2014-4-28,58,49,41,40,37,34,79,64,44,30.17,29.93,12,3,20,0.00
2014-4-29,46,44,42,38,35,33,77,71,67,30.47,30.17,22,6,23,0.00
2014-4-30,46,43,42,42,37,34,92,80,70,30.48,30.12,16,5,19,0.21
2014-5-1,65,52,44,58,49,42,95,89,73,30.10,29.59,7,1,16,0.59
2014-5-2,70,60,52,53,39,31,90,49,25,29.74,29.59,16,3,22,0.00
2014-5-3,68,60,50,40,38,35,67,45,30,29.80,29.65,11,1,14,0.00
2014-5-4,62,56,50,45,38,32,72,51,34,29.66,29.47,21,6,33,0.00
2014-5-5,66,57,50,42,39,36,68,51,34,29.79,29.55,17,5,23,0.00
2014-5-6,65,55,45,39,33,23,75,46,24,29.97,29.77,24,3,24,0.01
2014-5-7,70,58,45,35,28,19,54,34,15,30.11,29.97,10,2,18,0.00
2014-5-8,69,59,48,53,37,28,76,45,25,30.13,30.01,11,2,15,0.00
2014-5-9,60,56,53,54,51,48,92,83,67,30.18,30.01,6,1,9,0.00
2014-5-10,81,69,60,65,60,53,93,76,38,30.01,29.68,12,2,20,0.36
2014-5-11,80,71,61,60,39,24,84,38,13,29.96,29.72,14,3,23,0.02
2014-5-12,87,74,58,56,41,35,58,34,16,30.05,29.89,15,2,22,0.00
2014-5-13,59,51,48,45,40,29,75,66,47,30.28,30.06,17,3,24,0.00
2014-5-14,65,57,47,54,46,39,81,68,54,30.27,30.19,9,2,14,0.00
2014-5-15,81,69,61,62,59,54,89,72,46,30.23,30.15,12,2,17,0.00
2014-5-16,75,68,65,64,61,59,93,81,61,30.14,29.92,15,3,23,0.13
2014-5-17,78,68,59,64,51,34,95,61,23,30.00,29.79,14,3,21,0.11
2014-5-18,69,60,52,45,41,32,61,49,35,30.05,29.95,12,1,13,0.04
2014-5-19,68,59,51,49,36,30,87,45,26,30.03,29.93,19,4,30,0.03
2014-5-20,73,62,51,49,44,36,89,56,27,29.95,29.87,14,2,21,0.02
2014-5-21,71,62,52,52,48,45,85,63,44,29.93,29.87,11,2,15,0.01
2014-5-22,64,58,55,56,52,48,92,81,64,29.90,29.81,8,1,13,0.04
2014-5-23,62,56,53,55,51,47,93,82,61,29.92,29.81,11,2,13,0.01
2014-5-24,67,59,52,52,48,43,92,67,44,30.00,29.89,11,2,12,0.00
2014-5-25,69,60,52,55,52,50,94,77,54,30.03,29.94,9,1,11,0.00
2014-5-26,80,76,63,58,55,51,77,50,38,29.85,29.73,12,2,22,0.00
2014-5-27,74,62,50,58,53,47,93,74,50,29.90,29.73,12,2,16,0.02
2014-5-28,50,49,45,49,46,40,95,90,79,30.15,29.84,15,4,20,0.02
2014-5-29,66,54,42,46,39,25,90,60,29,30.18,30.09,9,1,13,0.00
2014-5-30,75,60,48,56,47,38,89,67,27,30.10,29.92,10,1,14,0.01
2014-5-31,66,57,51,51,45,30,90,68,31,30.23,29.99,12,3,17,0.00
2014-6-1,75,63,48,49,42,34,84,50,26,30.27,30.18,10,1,13,0.00
2014-6-2,86,71,55,53,46,43,64,44,23,30.18,29.93,13,1,16,0.00
2014-6-3,81,70,59,57,53,40,76,56,41,29.96,29.83,13,2,19,0.00
2014-6-4,65,61,55,57,53,42,89,77,45,29.84,29.72,6,1,11,0.16
2014-6-5,62,60,57,60,58,56,96,94,89,29.73,29.58,10,1,15,0.09
2014-6-6,77,66,56,58,54,47,97,68,38,29.81,29.63,18,2,22,0.01
2014-6-7,84,73,58,57,53,48,81,53,30,29.87,29.80,10,1,14,0.00
2014-6-8,87,76,62,58,54,49,79,50,28,29.88,29.79,9,1,12,0.00
2014-6-9,83,72,66,61,56,51,70,56,35,29.92,29.83,9,1,15,0.01
2014-6-10,83,69,62,66,62,54,89,77,55,30.04,29.86,13,2,18,0.00
2014-6-11,72,64,59,54,53,49,81,68,49,30.13,30.04,12,3,15,0.00
2014-6-12,70,64,60,58,55,52,80,73,62,30.10,30.00,9,2,15,0.01
2014-6-13,65,62,60,64,60,56,96,92,76,30.01,29.72,12,2,15,0.00
2014-6-14,77,66,60,66,59,50,97,81,57,29.84,29.74,10,1,18,0.01
2014-6-15,81,69,57,55,51,46,82,54,34,29.99,29.84,17,4,20,0.01
2014-6-16,80,71,60,53,48,42,67,47,28,30.08,29.95,8,1,12,0.00
2014-6-17,88,75,62,69,62,52,90,66,50,30.00,29.81,10,1,18,0.00
2014-6-18,87,79,70,67,62,55,87,59,36,29.86,29.66,19,3,25,0.00
2014-6-19,85,76,67,62,52,34,73,47,22,29.90,29.83,13,2,18,0.00
2014-6-20,77,68,59,48,41,34,62,40,21,29.91,29.81,16,3,22,0.00
2014-6-21,78,67,55,48,44,40,67,45,29,29.91,29.81,11,1,16,0.00
2014-6-22,77,67,57,50,46,42,66,47,31,29.97,29.86,9,2,13,0.00
2014-6-23,82,70,58,56,50,44,83,52,28,30.11,29.97,11,1,15,0.00
2014-6-24,87,73,61,59,55,50,75,54,35,30.11,29.95,17,2,19,0.00
2014-6-25,92,78,66,69,63,54,83,61,43,29.95,29.79,10,1,18,0.00
2014-6-26,80,71,62,72,65,55,95,82,66,29.95,29.72,11,2,15,0.63
2014-6-27,79,69,59,57,45,32,91,49,21,30.14,29.95,11,2,16,0.00
2014-6-28,87,72,59,58,47,34,74,45,17,30.20,30.14,9,1,11,0.00
2014-6-29,90,76,62,58,53,44,79,50,22,30.19,30.04,12,1,19,0.00
2014-6-30,91,78,65,64,59,55,79,55,33,30.04,29.84,15,1,18,0.00
2014-7-1,90,81,70,70,66,59,83,62,48,29.87,29.72,12,2,21,0.00
2014-7-2,95,83,74,73,70,65,81,65,48,29.86,29.73,15,2,24,0.00
2014-7-3,95,83,71,74,70,66,91,68,45,29.95,29.81,13,1,29,0.22
2014-7-4,76,69,64,69,66,62,95,90,74,29.93,29.74,12,1,17,1.17
2014-7-5,80,70,58,63,51,38,95,58,26,29.93,29.70,18,5,29,0.34
2014-7-6,87,77,66,59,51,45,62,42,26,29.94,29.79,13,2,23,0.00
2014-7-7,90,79,70,71,64,59,81,62,41,29.81,29.63,13,2,21,0.02
2014-7-8,93,81,73,69,66,63,82,62,39,29.73,29.62,11,2,20,0.00
2014-7-9,91,81,74,69,64,57,82,58,34,29.87,29.59,14,2,17,0.00
2014-7-10,84,77,70,64,56,50,76,51,34,30.07,29.87,10,1,15,0.00
2014-7-11,80,73,67,59,53,47,72,52,34,30.18,30.07,10,2,13,0.00
2014-7-12,88,76,63,64,58,48,83,57,26,30.16,30.04,8,1,14,0.00
2014-7-13,90,78,68,67,60,53,79,57,30,30.06,29.83,15,3,26,0.00
2014-7-14,88,78,73,74,70,67,94,78,52,29.84,29.79,10,1,16,0.28
2014-7-15,90,79,73,75,72,71,98,82,58,29.81,29.68,12,2,18,0.00
2014-7-16,77,74,70,73,71,68,94,90,81,29.78,29.69,7,1,13,0.63
2014-7-17,83,75,66,68,60,52,94,63,36,30.01,29.78,7,1,14,0.00
2014-7-18,84,74,66,60,56,50,73,55,31,30.16,30.01,7,1,11,0.00
2014-7-19,79,72,66,62,60,56,84,65,49,30.21,30.15,8,0,9,0.00
2014-7-20,77,70,66,62,57,51,84,63,45,30.16,30.09,9,1,13,0.00
2014-7-21,81,71,63,63,59,52,91,69,39,30.14,30.09,13,1,13,0.00
2014-7-22,91,85,73,68,65,61,72,53,39,30.08,29.93,7,1,13,0.00
2014-7-23,94,82,72,72,68,65,79,64,42,29.93,29.67,11,1,18,0.00
2014-7-24,79,74,68,66,63,58,80,69,60,29.84,29.68,11,2,13,0.00
2014-7-25,83,74,63,61,54,48,79,53,32,29.92,29.84,11,1,16,0.00
2014-7-26,88,69,65,63,52,50,80,51,29,29.92,29.82,18,1,18,0.00
2014-7-27,81,53,70,72,49,66,93,60,60,29.84,29.60,16,1,16,0.26
2014-7-28,86,39,71,70,34,62,93,35,56,29.62,29.38,22,1,22,0.64
2014-7-29,80,50,66,57,37,53,69,35,42,29.88,29.49,12,1,16,0.07
2014-7-30,82,72,61,59,53,42,83,55,29,29.99,29.88,12,0,12,0.00
2014-7-31,85,74,63,62,57,54,82,59,36,30.10,29.99,19,1,19,0.00
2014-8-1,87,76,66,67,64,61,88,68,45,30.17,30.10,17,1,17,0.00
2014-8-2,73,69,64,67,62,56,86,78,67,30.17,30.06,16,1,16,0.01
2014-8-3,75,68,63,63,60,58,90,78,58,30.08,29.99,9,1,9,0.00
2014-8-4,87,75,66,68,64,59,92,70,41,30.00,29.92,12,0,12,0.00
2014-8-5,89,79,69,67,65,54,92,65,33,29.97,29.82,11,1,11,0.00
2014-8-6,83,76,70,66,59,47,80,58,30,29.82,29.71,16,1,16,0.00
2014-8-7,80,70,63,64,55,51,83,60,38,29.88,29.78,16,1,16,0.13
2014-8-8,84,72,60,57,53,46,81,55,28,29.96,29.87,15,1,15,0.00
2014-8-9,84,74,63,60,56,51,77,55,37,30.03,29.95,12,1,12,0.00
2014-8-10,86,75,64,60,55,47,77,52,28,30.07,30.01,13,1,13,0.00
2014-8-11,88,76,65,64,58,55,80,58,33,30.09,30.03,17,1,17,0.00
2014-8-12,84,74,65,65,60,48,89,63,32,30.07,29.97,18,2,18,0.00
2014-8-13,71,68,64,69,65,62,97,90,76,29.97,29.55,21,4,21,1.32
2014-8-14,77,68,60,62,54,46,95,66,37,29.81,29.60,13,2,19,0.00
2014-8-15,77,66,60,57,52,47,89,63,37,29.87,29.77,18,1,18,0.01
2014-8-16,79,70,60,57,52,48,76,56,35,29.92,29.85,17,1,17,0.00
2014-8-17,80,72,64,62,58,52,85,63,48,29.85,29.69,17,1,17,0.00
2014-8-18,78,69,60,56,51,43,79,55,31,29.83,29.73,19,2,19,0.00
2014-8-19,79,67,56,55,52,46,82,59,33,29.89,29.81,12,1,12,0.00
2014-8-20,80,69,59,59,55,49,89,65,39,30.00,29.89,12,1,12,0.00
2014-8-21,77,68,60,63,60,57,93,78,55,30.05,29.99,11,1,11,0.00
2014-8-22,73,68,62,64,61,56,93,80,60,30.05,30.01,10,2,13,0.09
2014-8-23,74,67,62,60,56,49,89,69,53,30.08,30.03,16,2,17,0.00
2014-8-24,81,70,60,57,54,51,82,59,38,30.09,30.04,10,0,10,0.00
2014-8-25,89,75,63,64,59,56,84,60,36,30.09,30.04,12,1,12,0.00
2014-8-26,91,77,65,65,62,55,89,63,31,30.10,29.97,14,0,14,0.00
2014-8-27,92,79,67,70,64,59,91,63,41,29.99,29.77,18,1,18,0.06
2014-8-28,82,73,64,70,55,44,90,57,32,29.92,29.73,21,3,21,0.00
2014-8-29,74,65,58,56,52,48,78,64,47,30.22,29.92,15,2,15,0.00
2014-8-30,80,68,58,60,56,50,90,67,37,30.25,30.08,19,1,19,0.00
2014-8-31,85,76,66,73,68,60,93,76,62,30.08,29.88,21,1,21,0.43
2014-9-1,90,79,71,72,69,63,94,73,46,29.92,29.83,11,0,11,0.01
2014-9-2,94,82,73,76,71,67,89,73,42,29.87,29.67,17,1,22,0.32
2014-9-3,82,76,71,72,61,51,88,61,35,30.02,29.64,16,2,17,0.00
2014-9-4,86,75,63,61,57,47,82,56,28,30.13,30.02,11,0,11,0.00
2014-9-5,91,78,68,71,65,60,84,65,42,30.10,29.92,16,1,17,0.00
2014-9-6,92,80,70,74,70,62,90,74,50,29.92,29.68,29,2,29,0.07
2014-9-7,77,69,64,63,56,41,89,66,28,30.15,29.86,12,1,20,0.10
2014-9-8,74,66,59,57,52,48,86,63,45,30.33,30.15,14,2,17,0.00
2014-9-9,72,66,63,59,53,45,87,64,43,30.30,30.13,16,2,17,0.00
2014-9-10,74,65,60,62,59,56,93,81,57,30.14,29.97,14,2,14,0.00
2014-9-11,80,71,64,67,63,58,88,75,60,29.98,29.71,16,2,18,0.00
2014-9-12,71,64,56,58,50,45,79,62,42,30.18,29.83,19,2,19,0.00
2014-9-13,68,59,52,59,52,45,95,76,56,30.23,30.05,16,2,17,0.13
2014-9-14,66,59,51,57,47,40,92,67,42,30.18,30.05,18,2,20,0.01
2014-9-15,66,57,46,48,44,40,84,63,40,30.19,30.05,11,1,13,0.00
2014-9-16,66,60,54,55,51,46,79,73,65,30.05,29.89,10,0,12,0.00
2014-9-17,73,62,52,52,47,38,89,62,31,29.96,29.87,10,0,10,0.00
2014-9-18,74,62,50,49,46,39,84,59,35,30.09,29.87,16,2,16,0.00
2014-9-19,58,52,46,40,35,30,66,52,38,30.37,30.09,16,2,16,0.00
2014-9-20,73,60,44,56,47,36,84,64,46,30.35,30.03,17,2,20,0.00
2014-9-21,84,72,62,69,64,56,92,78,56,30.03,29.49,18,1,18,0.05
2014-9-22,72,66,52,68,52,39,93,64,35,30.03,29.47,27,3,27,0.00
2014-9-23,70,58,46,49,42,38,76,57,36,30.37,30.03,13,1,15,0.00
2014-9-24,68,60,51,54,51,48,90,73,54,30.57,30.37,14,2,15,0.00
2014-9-25,63,59,52,52,50,49,88,75,63,30.49,30.19,10,1,12,0.00
2014-9-26,75,63,54,54,51,48,82,67,43,30.19,30.08,14,1,14,0.00
2014-9-27,83,69,55,59,54,50,91,64,33,30.12,30.06,10,0,10,0.00
2014-9-28,86,73,59,62,59,55,90,64,37,30.10,29.92,11,0,11,0.00
2014-9-29,78,67,58,61,59,55,91,77,47,29.97,29.88,15,2,15,0.00
2014-9-30,58,57,57,56,55,54,92,92,91,29.99,29.94,13,3,14,0.12
2014-10-1,58,58,57,56,56,55,95,93,91,30.06,29.95,16,4,18,0.81
2014-10-2,57,55,51,56,52,47,95,89,78,30.12,30.05,15,4,15,0.21
2014-10-3,58,53,48,52,49,45,92,85,74,30.09,29.85,13,1,14,0.01
2014-10-4,65,59,55,63,57,52,95,92,86,29.85,29.47,14,2,14,0.18
2014-10-5,64,56,49,62,42,32,93,65,34,29.89,29.48,18,1,18,0.00
2014-10-6,67,55,43,50,42,30,85,64,33,30.09,29.89,16,1,16,0.00
2014-10-7,74,65,56,60,56,51,93,74,45,30.09,29.91,23,3,23,0.00
2014-10-8,74,67,59,63,53,42,89,63,36,29.91,29.64,22,2,22,0.00
2014-10-9,65,58,50,43,37,29,66,46,29,29.94,29.82,22,2,22,0.00
2014-10-10,63,56,48,42,38,34,66,52,36,30.08,29.94,18,1,18,0.00
2014-10-11,51,49,46,48,44,40,91,81,66,30.08,30.00,7,0,7,0.30
2014-10-12,60,51,42,44,40,36,91,69,41,30.25,30.06,13,1,13,0.00
2014-10-13,64,55,42,54,46,38,89,73,57,30.31,30.19,13,1,13,0.00
2014-10-14,79,68,60,64,60,53,88,76,56,30.19,30.09,22,2,22,0.00
2014-10-15,81,71,64,67,64,61,92,79,54,30.09,29.91,20,2,20,0.00
2014-10-16,74,70,63,70,67,61,92,90,86,29.91,29.61,18,2,18,0.47
2014-10-17,73,65,60,61,56,48,94,76,43,29.64,29.54,16,1,16,0.01
2014-10-18,74,64,58,61,56,48,92,77,54,29.61,29.42,20,2,20,0.00
2014-10-19,58,52,44,48,36,23,72,56,42,29.89,29.53,22,4,22,0.00
2014-10-20,57,48,38,40,30,23,67,51,32,30.00,29.90,10,1,15,0.00
2014-10-21,65,56,48,57,50,40,88,81,68,29.94,29.84,12,1,12,0.03
2014-10-22,56,52,51,54,50,47,94,92,88,29.96,29.71,43,8,43,0.62
2014-10-23,55,52,50,52,50,48,99,93,91,29.72,29.53,30,9,34,2.00
2014-10-24,54,51,48,49,46,41,95,84,71,29.68,29.60,15,3,17,0.11
2014-10-25,65,55,46,46,42,36,83,64,35,29.70,29.42,13,1,13,0.00
2014-10-26,59,54,47,46,40,35,70,61,42,29.65,29.39,24,2,24,0.00
2014-10-27,62,53,45,41,38,36,76,60,38,29.97,29.65,20,2,20,0.00
2014-10-28,64,53,43,52,46,39,91,76,54,30.02,29.87,12,1,12,0.00
2014-10-29,75,60,52,61,53,42,93,77,51,29.88,29.69,11,1,15,0.05
2014-10-30,60,51,44,49,40,35,86,69,44,29.94,29.82,17,1,17,0.00
2014-10-31,54,48,43,41,37,34,89,66,53,29.99,29.90,14,2,14,0.00
2014-11-1,48,44,39,43,38,33,91,80,59,29.89,29.72,26,6,26,0.31
2014-11-2,41,39,35,36,29,14,90,70,35,29.76,29.56,29,8,29,0.14
2014-11-3,53,44,35,31,17,4,53,35,14,30.00,29.76,20,4,31,0.00
2014-11-4,63,52,40,43,33,25,65,50,27,30.06,29.93,14,0,14,0.00
2014-11-5,66,57,47,47,40,31,74,54,33,30.06,29.89,21,1,21,0.00
2014-11-6,52,49,46,48,43,35,93,80,64,30.06,29.41,14,1,14,0.54
2014-11-7,49,45,39,47,37,25,94,74,56,29.72,29.40,26,5,26,0.00
2014-11-8,48,41,35,31,24,18,69,52,32,29.90,29.73,17,2,17,0.00
2014-11-9,56,47,40,37,34,30,70,59,42,29.94,29.82,13,1,13,0.00
2014-11-10,59,48,36,42,33,29,82,59,32,30.14,29.95,11,0,11,0.00
2014-11-11,64,53,41,53,45,35,92,76,53,30.14,29.91,17,1,17,0.00
2014-11-12,61,55,45,55,49,33,93,81,55,29.94,29.78,16,1,16,0.00
2014-11-13,50,44,37,34,28,23,83,54,35,30.02,29.90,10,1,11,0.04
2014-11-14,44,38,32,36,26,16,91,67,34,30.03,29.83,16,2,20,0.13
2014-11-15,40,34,29,23,17,11,70,51,30,30.28,30.03,15,2,15,0.00
2014-11-16,43,37,28,28,22,16,66,55,36,30.32,30.06,17,1,17,0.00
2014-11-17,48,42,38,46,38,28,93,84,58,30.06,29.37,13,1,13,1.17
2014-11-18,42,35,26,40,19,1,93,56,28,29.86,29.39,27,5,27,0.00
2014-11-19,37,30,24,15,7,3,49,38,27,30.08,29.86,22,3,22,0.00
2014-11-20,49,38,31,20,17,12,59,44,27,30.00,29.67,27,3,27,0.00
2014-11-21,36,31,27,17,9,2,56,41,29,30.35,29.85,25,5,25,0.00
2014-11-22,45,35,25,21,11,2,55,39,18,30.37,29.99,23,4,23,0.00
2014-11-23,60,50,42,38,31,21,65,47,38,30.08,29.99,18,2,18,0.00
2014-11-24,66,59,45,63,54,34,92,84,66,30.03,29.51,28,4,28,0.27
2014-11-25,63,58,48,55,39,24,90,55,25,30.06,29.63,16,2,16,0.00
2014-11-26,48,40,33,36,31,28,93,73,46,30.14,29.62,24,4,24,1.19
2014-11-27,38,34,31,33,30,26,93,84,74,29.94,29.62,19,3,19,0.03
2014-11-28,35,31,27,27,22,16,87,71,51,30.15,29.92,17,3,20,0.04
2014-11-29,35,30,23,22,16,12,72,57,40,30.29,30.15,11,1,11,0.00
2014-11-30,58,48,34,42,36,22,78,62,42,30.19,29.96,20,2,20,0.00
2014-12-1,64,53,40,46,40,25,68,60,50,30.38,29.94,19,4,19,0.00
2014-12-2,42,37,33,38,24,17,89,60,47,30.65,30.32,20,5,20,0.11
2014-12-3,51,44,37,49,41,25,94,89,56,30.32,29.80,24,3,24,0.32
2014-12-4,44,37,30,25,20,13,62,49,36,30.49,30.01,24,3,24,0.00
2014-12-5,43,35,26,36,23,13,84,60,48,30.62,30.37,17,2,17,0.10
2014-12-6,46,40,38,44,38,36,93,92,84,30.37,30.09,15,2,15,0.65
2014-12-7,38,33,21,36,17,-5,93,57,23,30.63,30.17,22,5,22,0.06
2014-12-8,28,23,19,23,12,-3,85,64,35,30.71,30.45,17,4,17,0.00
2014-12-9,32,3,28,29,2,24,89,8,85,30.45,29.43,14,0,14,0.01
2014-12-12,39,37,34,28,27,26,75,68,62,29.82,29.76,12,3,15,0.00
2014-12-13,43,36,32,28,26,24,79,67,53,29.80,29.71,12,3,18,0.00
2014-12-14,45,37,32,29,27,25,76,66,51,29.85,29.72,12,2,16,0.00
2014-12-15,44,36,31,32,29,26,84,74,54,30.09,29.84,9,1,14,0.00
2014-12-16,45,40,34,42,35,30,88,82,76,30.10,29.85,9,1,9,0.00
2014-12-17,48,44,41,44,40,32,94,86,71,29.85,29.62,18,3,18,0.23
2014-12-18,44,40,36,34,30,26,87,68,56,29.80,29.65,28,4,28,0.00
2014-12-19,37,34,29,26,22,19,67,62,55,30.08,29.79,19,3,19,0.00
2014-12-20,36,32,27,28,23,19,76,70,64,30.25,30.08,11,2,15,0.00
2014-12-21,36,34,31,30,27,25,82,76,68,30.31,30.22,14,3,14,0.00
2014-12-22,44,39,34,39,33,25,89,78,68,30.33,30.22,14,2,14,0.00
2014-12-23,46,45,42,45,42,36,95,90,76,30.23,30.09,20,4,20,0.10
2014-12-24,47,44,42,46,43,40,96,96,95,30.09,29.48,10,1,10,0.34